createdAt,value
2018-07-02T00:00:29.735Z,9.93
2018-07-02T00:02:58.334Z,10.60
2018-07-02T00:05:38.137Z,10.23
2018-07-02T00:08:06.823Z,9.47
2018-07-02T00:10:35.538Z,9.50
2018-07-02T00:13:04.141Z,12.23
2018-07-02T00:15:32.727Z,10.87
2018-07-02T00:18:01.357Z,10.47
2018-07-02T00:20:30.179Z,10.13
2018-07-02T00:22:58.786Z,10.00
2018-07-02T00:25:27.407Z,10.80
2018-07-02T00:27:56.049Z,12.77
2018-07-02T00:30:24.640Z,10.70
2018-07-02T00:32:53.266Z,10.43
2018-07-02T00:35:21.917Z,10.33
2018-07-02T00:37:50.491Z,10.27
2018-07-02T00:40:19.106Z,11.00
2018-07-02T00:42:47.707Z,10.53
2018-07-02T00:45:16.295Z,10.43
2018-07-02T00:47:44.944Z,9.90
2018-07-02T00:50:13.798Z,11.30
2018-07-02T00:52:42.415Z,10.37
2018-07-02T00:55:11.009Z,9.77
2018-07-02T00:57:39.602Z,9.73
2018-07-02T01:00:15.235Z,10.10
2018-07-02T01:02:44.110Z,11.10
2018-07-02T01:05:13.416Z,10.63
2018-07-02T01:07:43.190Z,10.40
2018-07-02T01:10:11.821Z,10.33
2018-07-02T01:12:40.466Z,11.33
2018-07-02T01:15:09.141Z,10.17
2018-07-02T01:17:37.753Z,10.73
2018-07-02T01:20:06.361Z,14.73
2018-07-02T01:22:34.929Z,11.47
2018-07-02T01:25:03.632Z,9.97
2018-07-02T01:27:34.417Z,9.87
2018-07-02T01:30:08.085Z,9.87
2018-07-02T01:32:36.700Z,10.57
2018-07-02T01:35:05.328Z,10.87
2018-07-02T01:37:33.921Z,10.90
2018-07-02T01:40:02.518Z,10.43
2018-07-02T01:42:31.051Z,10.27
2018-07-02T01:44:59.659Z,10.77
2018-07-02T01:47:28.275Z,10.03
2018-07-02T01:49:56.829Z,11.80
2018-07-02T01:52:25.418Z,10.80
2018-07-02T01:54:54.018Z,12.10
2018-07-02T01:57:22.615Z,11.17
2018-07-02T01:59:51.261Z,10.63
2018-07-02T02:02:19.894Z,11.47
2018-07-02T02:04:48.484Z,10.73
2018-07-02T02:07:17.133Z,11.40
2018-07-02T02:09:50.766Z,10.97
2018-07-02T02:12:19.337Z,10.63
2018-07-02T02:14:47.917Z,11.13
2018-07-02T02:17:16.503Z,10.43
2018-07-02T02:19:45.179Z,9.87
2018-07-02T02:22:13.751Z,10.57
2018-07-02T02:24:42.334Z,10.80
2018-07-02T02:27:10.970Z,9.83
2018-07-02T02:29:39.578Z,11.43
2018-07-02T02:32:08.226Z,10.50
2018-07-02T02:34:36.771Z,11.23
2018-07-02T02:37:05.493Z,10.97
2018-07-02T02:39:34.138Z,11.10
2018-07-02T02:42:02.794Z,10.53
2018-07-02T02:44:31.369Z,11.50
2018-07-02T02:46:59.947Z,10.63
2018-07-02T02:49:28.780Z,10.50
2018-07-02T02:51:57.381Z,11.50
2018-07-02T02:54:26.098Z,11.50
2018-07-02T02:56:54.763Z,11.43
2018-07-02T02:59:23.517Z,11.80
2018-07-02T03:01:52.131Z,12.60
2018-07-02T03:04:20.693Z,12.10
2018-07-02T03:06:49.331Z,11.70
2018-07-02T03:09:17.978Z,11.70
2018-07-02T03:11:46.614Z,11.77
2018-07-02T03:14:15.354Z,14.20
2018-07-02T03:16:43.873Z,12.10
2018-07-02T03:19:12.762Z,11.30
2018-07-02T03:21:41.386Z,13.17
2018-07-02T03:24:10.100Z,12.53
2018-07-02T03:26:38.687Z,13.47
2018-07-02T03:29:07.371Z,13.07
2018-07-02T03:31:36.031Z,11.70
2018-07-02T03:34:04.623Z,12.87
2018-07-02T03:36:33.257Z,11.77
2018-07-02T03:39:01.868Z,11.80
2018-07-02T03:41:30.427Z,13.97
2018-07-02T03:43:58.970Z,13.00
2018-07-02T03:46:27.599Z,14.27
2018-07-02T03:48:56.296Z,12.20
2018-07-02T03:51:24.905Z,14.70
2018-07-02T03:53:53.513Z,13.43
2018-07-02T03:56:22.199Z,12.80
2018-07-02T03:58:51.094Z,13.80
2018-07-02T04:01:19.657Z,13.67
2018-07-02T04:03:48.183Z,13.03
2018-07-02T04:06:16.785Z,13.30
2018-07-02T04:08:45.420Z,13.10
2018-07-02T04:11:13.969Z,12.20
2018-07-02T04:13:42.535Z,12.33
2018-07-02T04:16:11.111Z,13.10
2018-07-02T04:18:39.739Z,13.77
2018-07-02T04:21:08.429Z,12.90
2018-07-02T04:23:37.126Z,12.93
2018-07-02T04:26:05.752Z,13.87
2018-07-02T04:28:34.428Z,12.87
2018-07-02T04:31:03.052Z,13.87
2018-07-02T04:33:31.609Z,12.87
2018-07-02T04:36:00.284Z,12.80
2018-07-02T04:38:28.895Z,14.17
2018-07-02T04:40:57.752Z,14.30
2018-07-02T04:43:26.321Z,14.03
2018-07-02T04:45:54.889Z,16.23
2018-07-02T04:48:23.430Z,13.23
2018-07-02T04:50:52.199Z,13.73
2018-07-02T04:53:20.894Z,14.33
2018-07-02T04:55:49.480Z,13.57
2018-07-02T04:58:18.069Z,13.50
2018-07-02T05:00:46.950Z,13.50
2018-07-02T05:03:15.630Z,13.93
2018-07-02T05:05:44.163Z,12.47
2018-07-02T05:08:12.702Z,14.43
2018-07-02T05:10:41.234Z,13.37
2018-07-02T05:13:09.821Z,12.43
2018-07-02T05:15:38.415Z,15.07
2018-07-02T05:18:07.172Z,16.10
2018-07-02T05:20:35.757Z,13.93
2018-07-02T05:23:04.301Z,17.67
2018-07-02T05:25:32.911Z,14.63
2018-07-02T05:28:01.518Z,13.73
2018-07-02T05:30:30.310Z,12.90
2018-07-02T05:32:58.970Z,14.47
2018-07-02T05:35:27.639Z,12.57
2018-07-02T05:37:56.212Z,12.63
2018-07-02T05:40:25.079Z,13.20
2018-07-02T05:42:53.597Z,13.20
2018-07-02T05:45:22.190Z,13.50
2018-07-02T05:47:50.827Z,14.33
2018-07-02T05:50:19.411Z,16.63
2018-07-02T05:52:48.126Z,14.60
2018-07-02T05:55:16.771Z,13.57
2018-07-02T05:57:45.354Z,13.83
2018-07-02T06:00:14.211Z,16.07
2018-07-02T06:02:42.870Z,13.37
2018-07-02T06:05:11.535Z,19.70
2018-07-02T06:07:40.103Z,16.57
2018-07-02T06:10:08.744Z,16.33
2018-07-02T06:12:37.324Z,18.63
2018-07-02T06:15:05.916Z,18.73
2018-07-02T06:17:34.498Z,16.67
2018-07-02T06:20:03.370Z,16.93
2018-07-02T06:22:31.968Z,21.20
2018-07-02T06:25:00.582Z,19.60
2018-07-02T06:27:29.159Z,16.33
2018-07-02T06:29:58.057Z,14.70
2018-07-02T06:32:26.722Z,13.73
2018-07-02T06:34:55.319Z,15.47
2018-07-02T06:37:23.914Z,16.10
2018-07-02T06:39:58.000Z,16.00
2018-07-02T06:42:26.589Z,16.53
2018-07-02T06:44:55.199Z,18.73
2018-07-02T06:47:23.741Z,17.47
2018-07-02T06:49:52.396Z,17.67
2018-07-02T06:52:21.062Z,20.77
2018-07-02T06:54:49.670Z,13.80
2018-07-02T06:57:18.298Z,17.27
2018-07-02T06:59:47.003Z,17.20
2018-07-02T07:02:15.592Z,19.00
2018-07-02T07:04:44.180Z,15.10
2018-07-02T07:07:12.947Z,13.77
2018-07-02T07:09:46.482Z,11.60
2018-07-02T07:12:15.115Z,18.40
2018-07-02T07:14:43.683Z,15.73
2018-07-02T07:17:12.259Z,14.60
2018-07-02T07:19:41.066Z,18.47
2018-07-02T07:22:09.640Z,13.10
2018-07-02T07:24:38.245Z,14.60
2018-07-02T07:27:06.837Z,13.00
2018-07-02T07:29:35.458Z,14.97
2018-07-02T07:32:04.156Z,10.57
2018-07-02T07:34:32.828Z,7.10
2018-07-02T07:37:01.411Z,8.47
2018-07-02T07:39:29.999Z,9.40
2018-07-02T07:41:58.774Z,10.10
2018-07-02T07:44:27.358Z,8.20
2018-07-02T07:46:56.213Z,12.17
2018-07-02T07:49:30.035Z,9.83
2018-07-02T07:51:58.633Z,11.53
2018-07-02T07:54:27.297Z,9.97
2018-07-02T07:56:55.948Z,12.43
2018-07-02T07:59:24.628Z,7.47
2018-07-02T08:01:53.137Z,11.43
2018-07-02T08:04:21.753Z,6.43
2018-07-02T08:06:50.391Z,10.07
2018-07-02T08:09:19.036Z,8.17
2018-07-02T08:11:47.604Z,8.27
2018-07-02T08:14:16.147Z,6.80
2018-07-02T08:16:44.827Z,7.17
2018-07-02T08:19:13.627Z,6.97
2018-07-02T08:21:42.242Z,8.37
2018-07-02T08:24:10.806Z,6.67
2018-07-02T08:26:39.314Z,7.00
2018-07-02T08:29:07.954Z,7.77
2018-07-02T08:31:36.589Z,7.20
2018-07-02T08:34:05.309Z,8.57
2018-07-02T08:36:33.833Z,6.07
2018-07-02T08:39:03.447Z,7.87
2018-07-02T08:41:31.977Z,8.20
2018-07-02T08:44:00.598Z,10.37
2018-07-02T08:46:29.170Z,8.20
2018-07-02T08:48:57.779Z,7.30
2018-07-02T08:51:26.387Z,7.97
2018-07-02T08:53:55.006Z,9.10
2018-07-02T08:56:23.729Z,8.43
2018-07-02T08:58:52.442Z,6.73
2018-07-02T09:01:21.066Z,12.00
2018-07-02T09:03:49.687Z,15.63
2018-07-02T09:06:18.314Z,8.73
2018-07-02T09:08:46.898Z,9.43
2018-07-02T09:11:15.502Z,6.60
2018-07-02T09:13:44.093Z,8.60
2018-07-02T09:16:12.707Z,10.67
2018-07-02T09:18:41.362Z,8.73
2018-07-02T09:21:10.018Z,8.25
2018-07-02T09:23:38.541Z,7.05
2018-07-02T09:26:07.189Z,8.83
2018-07-02T09:28:35.854Z,7.50
2018-07-02T09:31:09.469Z,7.50
2018-07-02T09:33:38.062Z,7.55
2018-07-02T09:36:06.692Z,8.28
2018-07-02T09:38:35.322Z,7.35
2018-07-02T09:41:04.029Z,9.33
2018-07-02T09:43:32.673Z,8.00
2018-07-02T09:46:01.307Z,6.25
2018-07-02T09:48:29.915Z,10.10
2018-07-02T09:50:58.455Z,6.47
2018-07-02T09:53:27.327Z,6.62
2018-07-02T09:55:55.725Z,7.67
2018-07-02T09:58:24.322Z,6.28
2018-07-02T10:00:52.878Z,8.20
2018-07-02T10:03:21.437Z,8.40
2018-07-02T10:05:50.070Z,11.12
2018-07-02T10:08:18.738Z,8.25
2018-07-02T10:10:52.674Z,8.53
2018-07-02T10:13:21.256Z,9.15
2018-07-02T10:15:49.818Z,8.60
2018-07-02T10:18:18.451Z,8.18
2018-07-02T10:20:47.328Z,7.17
2018-07-02T10:23:15.981Z,9.45
2018-07-02T10:25:44.599Z,6.60
2018-07-02T10:28:13.279Z,10.10
2018-07-02T10:30:41.999Z,9.23
2018-07-02T10:33:10.513Z,8.10
2018-07-02T10:35:39.090Z,6.45
2018-07-02T10:38:07.657Z,7.17
2018-07-02T10:40:36.217Z,6.42
2018-07-02T10:43:05.654Z,7.47
2018-07-02T10:45:34.249Z,8.25
2018-07-02T10:48:02.937Z,7.53
2018-07-02T10:50:31.559Z,6.10
2018-07-02T10:53:00.135Z,6.30
2018-07-02T10:55:28.788Z,7.72
2018-07-02T10:57:57.376Z,10.68
2018-07-02T11:00:26.263Z,6.10
2018-07-02T11:02:54.902Z,6.47
2018-07-02T11:05:23.601Z,6.05
2018-07-02T11:07:52.226Z,7.58
2018-07-02T11:10:21.000Z,7.90
2018-07-02T11:12:49.554Z,5.90
2018-07-02T11:15:18.523Z,7.45
2018-07-02T11:17:47.103Z,6.42
2018-07-02T11:20:15.860Z,9.35
2018-07-02T11:22:44.579Z,6.12
2018-07-02T11:25:13.110Z,9.18
2018-07-02T11:27:41.902Z,8.38
2018-07-02T11:30:10.478Z,8.98
2018-07-02T11:32:39.019Z,7.20
2018-07-02T11:35:07.634Z,8.68
2018-07-02T11:37:36.219Z,6.80
2018-07-02T11:40:04.898Z,7.83
2018-07-02T11:42:33.451Z,8.10
2018-07-02T11:45:02.006Z,6.15
2018-07-02T11:47:30.703Z,6.78
2018-07-02T11:50:00.361Z,9.53
2018-07-02T11:52:29.009Z,9.30
2018-07-02T11:54:57.566Z,11.68
2018-07-02T11:57:26.241Z,8.05
2018-07-02T11:59:55.102Z,6.45
2018-07-02T12:02:23.669Z,8.53
2018-07-02T12:04:52.303Z,8.63
2018-07-02T12:07:20.939Z,9.85
2018-07-02T12:09:49.796Z,8.75
2018-07-02T12:12:18.410Z,6.47
2018-07-02T12:14:47.014Z,10.58
2018-07-02T12:17:15.644Z,5.90
2018-07-02T12:19:44.414Z,5.65
2018-07-02T12:22:13.005Z,8.90
2018-07-02T12:24:41.596Z,8.28
2018-07-02T12:27:10.141Z,9.58
2018-07-02T12:29:38.688Z,7.65
2018-07-02T12:32:07.311Z,8.53
2018-07-02T12:34:35.861Z,10.32
2018-07-02T12:37:04.494Z,9.68
2018-07-02T12:39:33.420Z,7.20
2018-07-02T12:42:02.079Z,9.20
2018-07-02T12:44:30.652Z,11.85
2018-07-02T12:46:59.161Z,11.70
2018-07-02T12:49:33.119Z,15.15
2018-07-02T12:52:01.691Z,14.38
2018-07-02T12:54:30.388Z,10.60
2018-07-02T12:56:58.862Z,9.53
2018-07-02T12:59:27.402Z,9.00
2018-07-02T13:01:56.042Z,9.70
2018-07-02T13:04:24.530Z,6.15
2018-07-02T13:06:53.329Z,9.10
2018-07-02T13:09:22.020Z,6.92
2018-07-02T13:11:50.666Z,9.25
2018-07-02T13:14:19.296Z,8.33
2018-07-02T13:16:47.873Z,6.72
2018-07-02T13:19:16.973Z,7.87
2018-07-02T13:21:45.516Z,11.08
2018-07-02T13:24:14.103Z,5.85
2018-07-02T13:26:42.574Z,9.08
2018-07-02T13:29:11.474Z,10.85
2018-07-02T13:31:40.037Z,5.55
2018-07-02T13:34:08.714Z,7.87
2018-07-02T13:36:37.386Z,8.28
2018-07-02T13:39:07.768Z,6.17
2018-07-02T13:41:36.341Z,10.03
2018-07-02T13:44:05.056Z,7.25
2018-07-02T13:46:33.731Z,9.10
2018-07-02T13:49:02.289Z,6.15
2018-07-02T13:51:30.847Z,8.43
2018-07-02T13:53:59.444Z,8.18
2018-07-02T13:56:28.002Z,10.82
2018-07-02T13:58:56.613Z,8.15
2018-07-02T14:01:25.224Z,5.97
2018-07-02T14:03:53.761Z,6.65
2018-07-02T14:06:22.391Z,7.08
2018-07-02T14:08:51.091Z,5.45
2018-07-02T14:11:19.627Z,8.18
2018-07-02T14:13:48.146Z,6.97
2018-07-02T14:16:16.674Z,10.35
2018-07-02T14:18:45.275Z,7.62
2018-07-02T14:21:14.047Z,7.55
2018-07-02T14:23:42.615Z,8.78
2018-07-02T14:26:11.165Z,8.40
2018-07-02T14:28:39.715Z,6.67
2018-07-02T14:31:08.527Z,9.78
2018-07-02T14:33:37.083Z,7.05
2018-07-02T14:36:06.234Z,10.28
2018-07-02T14:38:35.089Z,7.15
2018-07-02T14:41:03.867Z,8.80
2018-07-02T14:43:32.974Z,8.43
2018-07-02T14:46:01.664Z,11.00
2018-07-02T14:48:30.321Z,7.90
2018-07-02T14:50:58.952Z,11.35
2018-07-02T14:53:27.583Z,7.60
2018-07-02T14:55:56.165Z,7.42
2018-07-02T14:58:24.910Z,7.53
2018-07-02T15:00:58.711Z,11.70
2018-07-02T15:03:27.463Z,10.75
2018-07-02T15:05:56.117Z,9.58
2018-07-02T15:08:25.018Z,7.58
2018-07-02T15:10:53.640Z,12.55
2018-07-02T15:13:22.220Z,9.33
2018-07-02T15:15:50.851Z,11.25
2018-07-02T15:18:19.513Z,13.70
2018-07-02T15:20:48.039Z,10.20
2018-07-02T15:23:18.405Z,13.13
2018-07-02T15:25:49.671Z,13.83
2018-07-02T15:28:18.345Z,13.03
2018-07-02T15:30:47.165Z,10.72
2018-07-02T15:33:15.860Z,15.68
2018-07-02T15:35:44.628Z,14.35
2018-07-02T15:38:13.310Z,11.43
2018-07-02T15:40:41.940Z,17.20
2018-07-02T15:43:10.497Z,18.20
2018-07-02T15:45:39.099Z,10.18
2018-07-02T15:48:07.721Z,10.80
2018-07-02T15:50:36.322Z,12.63
2018-07-02T15:53:04.968Z,7.58
2018-07-02T15:55:33.588Z,19.82
2018-07-02T15:58:02.212Z,11.95
2018-07-02T16:00:30.855Z,8.30
2018-07-02T16:02:59.447Z,11.33
2018-07-02T16:05:27.999Z,9.60
2018-07-02T16:07:56.570Z,9.00
2018-07-02T16:10:25.223Z,11.53
2018-07-02T16:12:53.771Z,12.73
2018-07-02T16:15:22.351Z,12.47
2018-07-02T16:17:50.914Z,9.70
2018-07-02T16:20:19.435Z,13.93
2018-07-02T16:22:48.029Z,10.68
2018-07-02T16:25:16.565Z,11.73
2018-07-02T16:27:45.121Z,7.87
2018-07-02T16:30:18.775Z,11.48
2018-07-02T16:32:47.353Z,8.78
2018-07-02T16:35:15.850Z,9.63
2018-07-02T16:37:44.466Z,8.70
2018-07-02T16:40:13.172Z,14.50
2018-07-02T16:42:41.778Z,9.88
2018-07-02T16:45:10.352Z,7.50
2018-07-02T16:47:38.955Z,8.50
2018-07-02T16:50:07.869Z,8.80
2018-07-02T16:52:36.469Z,7.95
2018-07-02T16:55:05.303Z,8.25
2018-07-02T16:57:33.963Z,9.70
2018-07-02T17:00:02.547Z,11.08
2018-07-02T17:02:31.123Z,9.85
2018-07-02T17:04:59.769Z,12.28
2018-07-02T17:07:28.413Z,8.05
2018-07-02T17:09:57.133Z,11.25
2018-07-02T17:12:25.771Z,9.58
2018-07-02T17:14:54.385Z,8.28
2018-07-02T17:17:22.986Z,10.00
2018-07-02T17:19:51.911Z,9.60
2018-07-02T17:22:20.574Z,11.70
2018-07-02T17:24:49.155Z,9.20
2018-07-02T17:27:17.766Z,8.83
2018-07-02T17:29:46.596Z,7.42
2018-07-02T17:32:15.194Z,8.93
2018-07-02T17:34:43.776Z,7.65
2018-07-02T17:37:12.379Z,16.67
2018-07-02T17:39:41.126Z,8.48
2018-07-02T17:42:09.657Z,10.97
2018-07-02T17:44:38.221Z,10.98
2018-07-02T17:47:06.792Z,7.08
2018-07-02T17:49:35.365Z,8.10
2018-07-02T17:52:03.949Z,6.30
2018-07-02T17:54:32.570Z,10.63
2018-07-02T17:57:01.147Z,6.77
2018-07-02T17:59:29.765Z,7.83
2018-07-02T18:01:58.365Z,7.12
2018-07-02T18:04:27.102Z,7.58
2018-07-02T18:06:55.733Z,10.82
2018-07-02T18:09:29.659Z,9.10
2018-07-02T18:11:58.247Z,11.35
2018-07-02T18:14:26.882Z,8.73
2018-07-02T18:16:55.414Z,12.80
2018-07-02T18:19:24.337Z,10.73
2018-07-02T18:21:52.880Z,10.05
2018-07-02T18:24:21.527Z,10.60
2018-07-02T18:26:50.226Z,8.00
2018-07-02T18:29:18.818Z,6.47
2018-07-02T18:31:47.418Z,8.87
2018-07-02T18:34:16.066Z,7.37
2018-07-02T18:36:44.685Z,11.17
2018-07-02T18:39:13.426Z,11.23
2018-07-02T18:41:42.066Z,7.83
2018-07-02T18:44:10.703Z,9.17
2018-07-02T18:46:39.347Z,7.30
2018-07-02T18:49:08.265Z,9.67
2018-07-02T18:51:36.818Z,7.73
2018-07-02T18:54:05.454Z,7.97
2018-07-02T18:56:34.035Z,8.73
2018-07-02T18:59:02.622Z,8.10
2018-07-02T19:01:31.394Z,8.33
2018-07-02T19:04:00.014Z,10.47
2018-07-02T19:06:28.882Z,10.37
2018-07-02T19:08:57.469Z,10.97
2018-07-02T19:11:31.347Z,8.20
2018-07-02T19:14:00.046Z,8.87
2018-07-02T19:16:28.754Z,9.57
2018-07-02T19:18:57.360Z,10.87
2018-07-02T19:21:25.977Z,8.03
2018-07-02T19:23:54.714Z,9.27
2018-07-02T19:26:23.415Z,8.97
2018-07-02T19:28:52.022Z,10.53
2018-07-02T19:31:20.796Z,7.40
2018-07-02T19:33:49.395Z,9.90
2018-07-02T19:36:18.027Z,10.27
2018-07-02T19:38:46.709Z,8.93
2018-07-02T19:41:15.532Z,14.10
2018-07-02T19:43:44.115Z,12.60
2018-07-02T19:46:12.755Z,9.83
2018-07-02T19:48:41.306Z,11.07
2018-07-02T19:51:09.987Z,11.20
2018-07-02T19:53:38.609Z,10.83
2018-07-02T19:56:07.183Z,8.10
2018-07-02T19:58:35.819Z,11.37
2018-07-02T20:01:04.761Z,12.07
2018-07-02T20:03:33.327Z,9.23
2018-07-02T20:06:01.914Z,8.90
2018-07-02T20:08:30.608Z,10.63
2018-07-02T20:10:59.208Z,6.83
2018-07-02T20:13:27.844Z,9.87
2018-07-02T20:15:56.468Z,14.47
2018-07-02T20:18:25.143Z,14.73
2018-07-02T20:20:53.774Z,11.60
2018-07-02T20:23:22.340Z,8.07
2018-07-02T20:25:50.966Z,8.03
2018-07-02T20:28:19.539Z,9.70
2018-07-02T20:30:48.315Z,15.53
2018-07-02T20:33:16.912Z,19.97
2018-07-02T20:35:45.501Z,10.40
2018-07-02T20:38:14.108Z,8.97
2018-07-02T20:40:42.827Z,8.17
2018-07-02T20:43:11.399Z,8.63
2018-07-02T20:45:40.247Z,8.20
2018-07-02T20:48:08.786Z,9.57
2018-07-02T20:50:37.474Z,10.60
2018-07-02T20:53:06.101Z,11.23
2018-07-02T20:55:34.721Z,9.20
2018-07-02T20:58:03.270Z,12.53
2018-07-02T21:00:32.403Z,11.07
2018-07-02T21:03:02.540Z,10.00
2018-07-02T21:05:31.732Z,8.40
2018-07-02T21:08:00.294Z,10.37
2018-07-02T21:10:29.202Z,12.60
2018-07-02T21:12:57.748Z,11.53
2018-07-02T21:15:26.394Z,9.70
2018-07-02T21:17:54.972Z,10.73
2018-07-02T21:20:23.919Z,9.70
2018-07-02T21:22:52.461Z,9.10
2018-07-02T21:25:21.010Z,11.30
2018-07-02T21:27:49.596Z,10.87
2018-07-02T21:30:18.262Z,8.17
2018-07-02T21:32:46.883Z,6.73
2018-07-02T21:35:15.426Z,8.70
2018-07-02T21:37:43.985Z,7.80
2018-07-02T21:40:12.764Z,8.57
2018-07-02T21:42:41.279Z,7.87
2018-07-02T21:45:09.895Z,8.20
2018-07-02T21:47:38.528Z,7.30
2018-07-02T21:50:07.106Z,7.90
2018-07-02T21:52:35.716Z,11.23
2018-07-02T21:55:04.375Z,8.83
2018-07-02T21:57:33.028Z,11.13
2018-07-02T22:00:01.657Z,10.87
2018-07-02T22:02:30.356Z,10.67
2018-07-02T22:04:58.941Z,9.63
2018-07-02T22:07:27.519Z,8.73
2018-07-02T22:09:56.302Z,11.90
2018-07-02T22:12:24.898Z,8.63
2018-07-02T22:14:53.510Z,10.30
2018-07-02T22:17:22.018Z,11.57
2018-07-02T22:19:50.718Z,8.17
2018-07-02T22:22:19.308Z,8.30
2018-07-02T22:24:47.878Z,10.57
2018-07-02T22:27:16.486Z,14.73
2018-07-02T22:29:45.181Z,12.40
2018-07-02T22:32:13.718Z,9.77
2018-07-02T22:34:42.321Z,8.63
2018-07-02T22:37:10.871Z,7.60
2018-07-02T22:39:39.443Z,8.20
2018-07-02T22:42:08.053Z,9.07
2018-07-02T22:44:36.652Z,10.07
2018-07-02T22:47:05.295Z,9.07
2018-07-02T22:49:33.958Z,7.30
2018-07-02T22:52:02.541Z,9.17
2018-07-02T22:54:31.182Z,11.43
2018-07-02T22:56:59.701Z,7.90
2018-07-02T22:59:28.505Z,11.00
2018-07-02T23:01:57.045Z,8.57
2018-07-02T23:04:25.604Z,8.43
2018-07-02T23:06:54.289Z,9.33
2018-07-02T23:09:23.021Z,11.67
2018-07-02T23:11:51.686Z,9.03
2018-07-02T23:14:20.214Z,9.80
2018-07-02T23:16:48.769Z,9.47
2018-07-02T23:19:17.313Z,11.37
2018-07-02T23:21:45.924Z,9.87
2018-07-02T23:24:14.503Z,8.27
2018-07-02T23:26:43.090Z,10.63
2018-07-02T23:29:11.689Z,13.07
2018-07-02T23:31:40.247Z,9.87
2018-07-02T23:34:08.782Z,9.10
2018-07-02T23:36:37.407Z,11.80
2018-07-02T23:39:08.777Z,10.53
2018-07-02T23:41:37.354Z,12.10
2018-07-02T23:44:05.985Z,9.77
2018-07-02T23:46:34.623Z,10.03
2018-07-02T23:49:03.299Z,10.00
2018-07-02T23:51:32.225Z,8.90
2018-07-02T23:54:01.027Z,7.63
2018-07-02T23:56:29.589Z,9.60
2018-07-02T23:58:58.164Z,9.03
